createdAt,value
2017-12-21T00:00:00.056Z,22.27
2017-12-21T00:02:28.319Z,13.30
2017-12-21T00:04:57.286Z,11.60
2017-12-21T00:07:25.593Z,12.90
2017-12-21T00:09:54.849Z,11.87
2017-12-21T00:12:23.385Z,11.17
2017-12-21T00:14:53.293Z,13.27
2017-12-21T00:17:21.584Z,15.37
2017-12-21T00:19:49.888Z,12.23
2017-12-21T00:22:30.857Z,10.60
2017-12-21T00:24:59.888Z,10.77
2017-12-21T00:27:28.178Z,10.23
2017-12-21T00:29:56.464Z,12.27
2017-12-21T00:32:26.512Z,10.40
2017-12-21T00:34:55.703Z,12.17
2017-12-21T00:37:23.970Z,12.73
2017-12-21T00:39:53.120Z,16.87
2017-12-21T00:42:21.419Z,12.60
2017-12-21T00:44:49.692Z,14.20
2017-12-21T00:47:17.943Z,12.10
2017-12-21T00:49:46.236Z,15.10
2017-12-21T00:52:14.494Z,17.77
2017-12-21T00:54:44.453Z,15.53
2017-12-21T00:57:12.717Z,14.87
2017-12-21T00:59:41.047Z,16.20
2017-12-21T01:02:09.311Z,16.67
2017-12-21T01:04:37.592Z,15.53
2017-12-21T01:07:05.878Z,15.37
2017-12-21T01:09:34.963Z,11.83
2017-12-21T01:12:03.241Z,11.17
2017-12-21T01:14:31.486Z,10.93
2017-12-21T01:16:59.813Z,11.50
2017-12-21T01:19:28.112Z,15.30
2017-12-21T01:21:56.596Z,10.27
2017-12-21T01:24:25.605Z,12.97
2017-12-21T01:26:53.939Z,11.43
2017-12-21T01:29:22.199Z,15.53
2017-12-21T01:31:51.093Z,13.57
2017-12-21T01:34:19.477Z,14.60
2017-12-21T01:36:48.619Z,13.97
2017-12-21T01:39:16.978Z,11.00
2017-12-21T01:41:45.237Z,10.23
2017-12-21T01:44:13.503Z,11.73
2017-12-21T01:46:41.772Z,10.30
2017-12-21T01:49:12.420Z,10.03
2017-12-21T01:51:41.457Z,8.73
2017-12-21T01:54:09.730Z,11.10
2017-12-21T01:56:37.973Z,11.00
2017-12-21T01:59:06.226Z,11.40
2017-12-21T02:01:35.356Z,12.80
2017-12-21T02:04:03.616Z,13.37
2017-12-21T02:06:31.889Z,11.30
2017-12-21T02:09:00.207Z,14.53
2017-12-21T02:11:28.577Z,14.30
2017-12-21T02:13:56.888Z,12.57
2017-12-21T02:16:25.149Z,16.73
2017-12-21T02:18:53.466Z,17.60
2017-12-21T02:21:21.724Z,17.57
2017-12-21T02:23:50.033Z,19.83
2017-12-21T02:26:18.494Z,16.70
2017-12-21T02:28:46.781Z,16.57
2017-12-21T02:31:15.258Z,17.53
2017-12-21T02:33:43.510Z,21.40
2017-12-21T02:36:11.800Z,21.37
2017-12-21T02:38:40.143Z,21.13
2017-12-21T02:41:09.379Z,20.73
2017-12-21T02:43:38.537Z,23.37
2017-12-21T02:46:06.793Z,23.50
2017-12-21T02:48:35.104Z,21.63
2017-12-21T02:51:04.204Z,21.00
2017-12-21T02:53:32.508Z,23.93
2017-12-21T02:56:00.761Z,21.97
2017-12-21T02:58:29.869Z,19.33
2017-12-21T03:00:58.157Z,24.63
2017-12-21T03:03:27.212Z,20.80
2017-12-21T03:05:55.542Z,19.83
2017-12-21T03:08:24.568Z,24.20
2017-12-21T03:10:53.829Z,22.97
2017-12-21T03:13:22.124Z,31.13
2017-12-21T03:15:50.488Z,24.30
2017-12-21T03:18:19.700Z,26.20
2017-12-21T03:20:48.010Z,23.40
2017-12-21T03:23:16.269Z,23.67
2017-12-21T03:25:44.556Z,22.33
2017-12-21T03:28:12.816Z,20.87
2017-12-21T03:30:41.089Z,21.20
2017-12-21T03:33:09.509Z,18.50
2017-12-21T03:35:38.057Z,18.73
2017-12-21T03:38:06.358Z,19.73
2017-12-21T03:40:35.443Z,17.50
2017-12-21T03:43:03.712Z,17.20
2017-12-21T03:45:32.000Z,15.23
2017-12-21T03:50:22.059Z,21.40
2017-12-21T03:52:50.334Z,18.50
2017-12-21T03:55:18.621Z,17.93
2017-12-21T03:57:47.718Z,17.93
2017-12-21T04:00:16.755Z,18.70
2017-12-21T04:02:45.850Z,23.37
2017-12-21T04:05:14.157Z,24.33
2017-12-21T04:07:44.776Z,20.60
2017-12-21T04:10:13.069Z,27.53
2017-12-21T04:12:41.352Z,27.00
2017-12-21T04:15:11.358Z,26.57
2017-12-21T04:17:40.836Z,25.87
2017-12-21T04:20:09.900Z,25.30
2017-12-21T04:22:38.166Z,21.50
2017-12-21T04:25:07.420Z,24.50
2017-12-21T04:27:36.653Z,19.93
2017-12-21T04:30:04.933Z,23.27
2017-12-21T04:32:33.225Z,21.40
2017-12-21T04:35:01.496Z,17.80
2017-12-21T04:37:29.795Z,21.47
2017-12-21T04:39:58.080Z,23.70
2017-12-21T04:42:26.385Z,22.00
2017-12-21T04:44:55.433Z,23.50
2017-12-21T04:47:24.736Z,23.53
2017-12-21T04:49:53.044Z,23.77
2017-12-21T04:52:22.977Z,24.37
2017-12-21T04:54:52.238Z,23.70
2017-12-21T04:57:20.536Z,27.10
2017-12-21T04:59:49.598Z,26.17
2017-12-21T05:02:17.857Z,28.07
2017-12-21T05:04:46.154Z,31.27
2017-12-21T05:07:14.432Z,25.43
2017-12-21T05:09:42.698Z,27.30
2017-12-21T05:12:12.673Z,29.33
2017-12-21T05:14:41.790Z,28.73
2017-12-21T05:17:10.692Z,26.53
2017-12-21T05:19:38.990Z,25.57
2017-12-21T05:22:08.196Z,25.30
2017-12-21T05:24:36.477Z,24.87
2017-12-21T05:27:04.793Z,26.37
2017-12-21T05:29:33.108Z,29.13
2017-12-21T05:32:01.361Z,25.90
2017-12-21T05:34:30.388Z,26.23
2017-12-21T05:36:58.646Z,32.57
2017-12-21T05:39:26.903Z,28.97
2017-12-21T05:41:55.184Z,24.87
2017-12-21T05:44:23.453Z,26.60
2017-12-21T05:46:51.728Z,27.43
2017-12-21T05:49:21.340Z,26.30
2017-12-21T05:51:50.373Z,27.70
2017-12-21T05:54:18.646Z,33.00
2017-12-21T05:56:46.936Z,28.40
2017-12-21T05:59:15.352Z,28.00
2017-12-21T06:01:44.377Z,29.60
2017-12-21T06:04:12.707Z,27.50
2017-12-21T06:06:41.825Z,22.67
2017-12-21T06:09:10.085Z,27.07
2017-12-21T06:11:39.869Z,27.07
2017-12-21T06:14:08.132Z,21.53
2017-12-21T06:16:36.536Z,23.17
2017-12-21T06:19:04.855Z,21.47
2017-12-21T06:21:33.931Z,24.63
2017-12-21T06:24:02.180Z,22.40
2017-12-21T06:26:30.492Z,22.97
2017-12-21T06:28:59.570Z,20.83
2017-12-21T06:31:28.063Z,19.40
2017-12-21T06:33:56.402Z,18.77
2017-12-21T06:36:25.440Z,19.90
2017-12-21T06:38:53.712Z,19.47
2017-12-21T06:41:22.773Z,21.50
2017-12-21T06:43:51.058Z,17.57
2017-12-21T06:46:19.356Z,21.13
2017-12-21T06:48:47.625Z,22.50
2017-12-21T06:51:15.919Z,21.00
2017-12-21T06:53:44.945Z,18.40
2017-12-21T06:56:13.338Z,17.27
2017-12-21T06:58:41.629Z,18.53
2017-12-21T07:01:09.900Z,19.93
2017-12-21T07:03:38.316Z,20.53
2017-12-21T07:06:06.569Z,20.73
2017-12-21T07:08:35.866Z,18.03
2017-12-21T07:11:04.145Z,16.90
2017-12-21T07:13:32.427Z,13.77
2017-12-21T07:16:01.590Z,15.70
2017-12-21T07:18:29.878Z,16.77
2017-12-21T07:20:58.298Z,15.77
2017-12-21T07:23:27.806Z,20.77
2017-12-21T07:25:56.083Z,11.70
2017-12-21T07:28:24.355Z,15.27
2017-12-21T07:30:54.126Z,14.00
2017-12-21T07:33:22.400Z,13.03
2017-12-21T07:35:50.692Z,12.60
2017-12-21T07:38:18.982Z,17.10
2017-12-21T07:43:55.376Z,10.57
2017-12-21T07:46:23.813Z,12.97
2017-12-21T07:48:52.056Z,11.80
2017-12-21T07:51:20.341Z,9.07
2017-12-21T07:53:48.645Z,11.50
2017-12-21T07:56:17.650Z,11.17
2017-12-21T07:58:45.978Z,10.47
2017-12-21T08:01:14.229Z,9.03
2017-12-21T08:03:43.121Z,8.30
2017-12-21T08:06:12.962Z,11.20
2017-12-21T08:08:41.196Z,10.20
2017-12-21T08:11:10.253Z,12.03
2017-12-21T08:13:39.396Z,9.30
2017-12-21T08:16:07.669Z,9.23
2017-12-21T08:18:35.985Z,8.73
2017-12-21T08:21:04.283Z,14.23
2017-12-21T08:23:32.532Z,13.40
2017-12-21T08:26:00.796Z,9.67
2017-12-21T08:28:30.043Z,10.90
2017-12-21T08:30:58.444Z,9.97
2017-12-21T08:33:26.702Z,9.73
2017-12-21T08:35:54.989Z,12.47
2017-12-21T08:38:23.861Z,9.40
2017-12-21T08:40:52.141Z,7.00
2017-12-21T08:43:20.421Z,7.87
2017-12-21T08:45:48.688Z,7.13
2017-12-21T08:48:16.997Z,7.50
2017-12-21T08:50:45.249Z,7.23
2017-12-21T08:53:15.177Z,8.87
2017-12-21T08:55:43.625Z,6.80
2017-12-21T08:58:11.944Z,6.97
2017-12-21T09:00:40.200Z,6.97
2017-12-21T09:03:08.502Z,8.27
2017-12-21T09:05:36.934Z,6.60
2017-12-21T09:08:05.165Z,7.57
2017-12-21T09:10:34.320Z,10.23
2017-12-21T09:13:02.614Z,7.97
2017-12-21T09:15:32.579Z,6.13
2017-12-21T09:18:00.847Z,9.13
2017-12-21T09:20:29.135Z,8.50
2017-12-21T09:22:57.399Z,7.40
2017-12-21T09:25:25.666Z,10.17
2017-12-21T09:27:53.967Z,7.30
2017-12-21T09:30:22.391Z,7.23
2017-12-21T09:32:50.625Z,8.70
2017-12-21T09:35:18.891Z,6.23
2017-12-21T09:37:48.144Z,8.70
2017-12-21T09:40:16.523Z,7.57
2017-12-21T09:42:44.761Z,7.87
2017-12-21T09:45:13.047Z,7.60
2017-12-21T09:47:41.294Z,8.40
2017-12-21T09:50:09.560Z,7.63
2017-12-21T09:52:38.898Z,7.23
2017-12-21T09:55:07.924Z,7.83
2017-12-21T09:57:36.151Z,8.80
2017-12-21T10:00:04.577Z,8.80
2017-12-21T10:02:33.597Z,8.67
2017-12-21T10:05:02.765Z,10.80
2017-12-21T10:07:31.749Z,11.10
2017-12-21T10:10:00.769Z,10.70
2017-12-21T10:12:29.073Z,13.53
2017-12-21T10:14:58.224Z,12.43
2017-12-21T10:17:27.993Z,12.50
2017-12-21T10:19:56.250Z,11.73
2017-12-21T10:22:25.234Z,12.13
2017-12-21T10:24:53.530Z,14.37
2017-12-21T10:27:21.965Z,14.13
2017-12-21T10:29:51.033Z,12.60
2017-12-21T10:32:20.137Z,11.80
2017-12-21T10:34:48.647Z,11.60
2017-12-21T10:37:18.559Z,12.93
2017-12-21T10:39:47.030Z,11.60
2017-12-21T10:42:15.302Z,22.10
2017-12-21T10:44:43.588Z,12.13
2017-12-21T10:47:11.862Z,12.77
2017-12-21T10:49:40.112Z,13.07
2017-12-21T10:52:08.433Z,11.60
2017-12-21T10:54:37.659Z,11.00
2017-12-21T10:57:05.989Z,11.00
2017-12-21T10:59:34.542Z,12.90
2017-12-21T11:02:02.807Z,12.73
2017-12-21T11:04:32.074Z,12.50
2017-12-21T11:07:00.470Z,12.47
2017-12-21T11:09:29.470Z,11.43
2017-12-21T11:11:57.757Z,11.83
2017-12-21T11:14:26.979Z,11.90
2017-12-21T11:16:55.275Z,10.10
2017-12-21T11:19:23.578Z,11.13
2017-12-21T11:21:51.830Z,9.67
2017-12-21T11:24:20.097Z,14.23
2017-12-21T11:26:48.585Z,7.17
2017-12-21T11:29:17.861Z,10.03
2017-12-21T11:31:46.148Z,8.97
2017-12-21T11:34:15.196Z,7.50
2017-12-21T11:36:44.350Z,9.83
2017-12-21T11:39:13.388Z,8.23
2017-12-21T11:41:41.669Z,6.90
2017-12-21T11:44:10.573Z,7.23
2017-12-21T11:46:38.849Z,9.00
2017-12-21T11:49:07.113Z,7.63
2017-12-21T11:51:35.375Z,7.23
2017-12-21T11:54:04.188Z,8.00
2017-12-21T11:56:33.232Z,7.47
2017-12-21T11:59:01.786Z,8.87
2017-12-21T12:01:31.034Z,9.03
2017-12-21T12:03:59.577Z,8.07
2017-12-21T12:06:28.680Z,7.67
2017-12-21T12:08:57.108Z,6.57
2017-12-21T12:11:26.394Z,10.03
2017-12-21T12:13:56.324Z,7.10
2017-12-21T12:16:24.903Z,7.60
2017-12-21T12:18:54.076Z,8.90
2017-12-21T12:21:26.554Z,7.93
2017-12-21T12:23:54.854Z,9.27
2017-12-21T12:26:23.182Z,9.03
2017-12-21T12:28:51.688Z,13.97
2017-12-21T12:31:20.296Z,11.17
2017-12-21T12:33:49.782Z,10.10
2017-12-21T12:36:19.991Z,13.53
2017-12-21T12:38:49.271Z,16.03
2017-12-21T12:41:22.376Z,15.43
2017-12-21T12:43:55.033Z,33.87
2017-12-21T12:46:23.307Z,14.53
2017-12-21T12:48:51.623Z,13.70
2017-12-21T12:51:19.892Z,14.87
2017-12-21T12:53:48.173Z,12.67
2017-12-21T12:56:16.458Z,17.77
2017-12-21T12:58:44.917Z,18.00
2017-12-21T13:01:13.164Z,12.40
2017-12-21T13:03:43.111Z,15.40
2017-12-21T13:06:12.229Z,13.27
2017-12-21T13:08:40.533Z,13.17
2017-12-21T13:11:08.802Z,13.17
2017-12-21T13:13:37.125Z,12.73
2017-12-21T13:16:05.613Z,13.57
2017-12-21T13:18:34.002Z,14.37
2017-12-21T13:21:02.449Z,11.60
2017-12-21T13:23:30.704Z,11.30
2017-12-21T13:25:58.984Z,12.63
2017-12-21T13:28:27.251Z,11.47
2017-12-21T13:30:55.543Z,12.33
2017-12-21T13:33:24.752Z,13.27
2017-12-21T13:35:53.907Z,11.30
2017-12-21T13:38:22.258Z,13.83
2017-12-21T13:40:50.495Z,13.27
2017-12-21T13:43:18.815Z,12.83
2017-12-21T13:45:47.110Z,12.97
2017-12-21T13:48:16.182Z,9.40
2017-12-21T13:50:44.428Z,10.33
2017-12-21T13:53:12.739Z,11.70
2017-12-21T13:55:41.021Z,13.07
2017-12-21T13:58:10.080Z,11.00
2017-12-21T14:00:38.378Z,11.73
2017-12-21T14:03:06.679Z,11.10
2017-12-21T14:05:35.015Z,9.87
2017-12-21T14:08:03.436Z,11.50
2017-12-21T14:10:31.698Z,11.87
2017-12-21T14:12:59.964Z,14.80
2017-12-21T14:15:29.224Z,13.77
2017-12-21T14:17:57.509Z,17.20
2017-12-21T14:20:25.821Z,17.87
2017-12-21T14:22:55.224Z,13.10
2017-12-21T14:25:23.704Z,15.33
2017-12-21T14:27:52.094Z,19.60
2017-12-21T14:30:21.151Z,14.20
2017-12-21T14:32:49.415Z,19.40
2017-12-21T14:35:17.758Z,25.03
2017-12-21T14:37:47.226Z,24.87
2017-12-21T14:40:15.672Z,17.47
2017-12-21T14:42:43.959Z,17.17
2017-12-21T14:45:12.260Z,25.70
2017-12-21T14:47:41.386Z,20.20
2017-12-21T14:50:11.368Z,24.47
2017-12-21T14:52:41.453Z,19.77
2017-12-21T14:55:10.045Z,27.20
2017-12-21T14:57:38.313Z,26.03
2017-12-21T15:00:06.606Z,31.43
2017-12-21T15:02:35.017Z,27.00
2017-12-21T15:05:03.464Z,25.77
2017-12-21T15:07:31.953Z,29.80
2017-12-21T15:10:00.228Z,26.53
2017-12-21T15:12:28.530Z,27.63
2017-12-21T15:14:56.910Z,33.70
2017-12-21T15:17:26.740Z,37.20
2017-12-21T15:19:55.058Z,31.30
2017-12-21T15:22:23.440Z,36.10
2017-12-21T15:24:51.706Z,33.50
2017-12-21T15:27:20.695Z,36.87
2017-12-21T15:29:48.977Z,33.27
2017-12-21T15:32:17.612Z,34.50
2017-12-21T15:34:46.035Z,35.10
2017-12-21T15:37:15.389Z,32.10
2017-12-21T15:39:43.741Z,32.80
2017-12-21T15:42:12.132Z,37.33
2017-12-21T15:44:40.437Z,37.53
2017-12-21T15:47:09.517Z,30.57
2017-12-21T15:49:37.789Z,35.80
2017-12-21T15:52:06.886Z,34.97
2017-12-21T15:54:35.175Z,38.80
2017-12-21T15:57:03.485Z,37.83
2017-12-21T15:59:32.500Z,45.83
2017-12-21T16:02:00.800Z,32.40
2017-12-21T16:04:29.616Z,34.33
2017-12-21T16:06:57.870Z,29.93
2017-12-21T16:09:26.199Z,29.93
2017-12-21T16:11:54.468Z,38.77
2017-12-21T16:14:22.768Z,25.90
2017-12-21T16:16:51.034Z,25.50
2017-12-21T16:19:19.365Z,23.03
2017-12-21T16:21:48.698Z,26.20
2017-12-21T16:24:17.153Z,24.90
2017-12-21T16:26:45.432Z,24.63
2017-12-21T16:29:13.762Z,23.87
2017-12-21T16:31:42.047Z,22.30
2017-12-21T16:34:10.328Z,22.47
2017-12-21T16:36:39.649Z,24.23
2017-12-21T16:39:08.037Z,27.67
2017-12-21T16:41:36.284Z,25.90
2017-12-21T16:44:04.796Z,23.13
2017-12-21T16:46:33.067Z,21.03
2017-12-21T16:49:01.541Z,16.80
2017-12-21T16:51:29.844Z,15.30
2017-12-21T16:53:58.159Z,19.67
2017-12-21T16:56:26.425Z,23.13
2017-12-21T16:58:54.674Z,18.57
2017-12-21T17:01:23.770Z,17.37
2017-12-21T17:03:52.041Z,22.80
2017-12-21T17:06:20.324Z,15.97
2017-12-21T17:08:48.631Z,18.00
2017-12-21T17:11:16.933Z,19.27
2017-12-21T17:13:45.512Z,16.67
2017-12-21T17:16:13.777Z,18.00
2017-12-21T17:18:42.053Z,22.00
2017-12-21T17:21:11.333Z,21.33
2017-12-21T17:23:39.653Z,20.87
2017-12-21T17:26:08.161Z,19.60
2017-12-21T17:28:36.458Z,18.70
2017-12-21T17:31:06.174Z,20.97
2017-12-21T17:33:34.414Z,21.30
2017-12-21T17:36:02.701Z,22.53
2017-12-21T17:38:32.757Z,21.50
2017-12-21T17:41:01.990Z,20.53
2017-12-21T17:43:30.857Z,24.40
2017-12-21T17:46:01.389Z,20.50
2017-12-21T17:48:29.700Z,19.73
2017-12-21T17:50:57.967Z,18.20
2017-12-21T17:53:26.258Z,20.07
2017-12-21T17:55:55.469Z,19.43
2017-12-21T17:58:23.747Z,25.07
2017-12-21T18:00:52.069Z,23.17
2017-12-21T18:03:21.319Z,17.70
2017-12-21T18:05:49.758Z,20.73
2017-12-21T18:08:18.074Z,22.80
2017-12-21T18:10:47.224Z,17.47
2017-12-21T18:13:15.574Z,20.60
2017-12-21T18:15:43.921Z,22.47
2017-12-21T18:18:12.167Z,23.07
2017-12-21T18:20:40.516Z,20.60
2017-12-21T18:23:08.805Z,25.73
2017-12-21T18:25:38.221Z,23.73
2017-12-21T18:28:06.506Z,19.83
2017-12-21T18:30:36.631Z,21.13
2017-12-21T18:33:04.960Z,19.43
2017-12-21T18:35:33.407Z,19.63
2017-12-21T18:38:01.872Z,21.23
2017-12-21T18:40:30.198Z,20.30
2017-12-21T18:42:58.645Z,19.37
2017-12-21T18:45:26.930Z,21.00
2017-12-21T18:47:55.364Z,20.90
2017-12-21T18:50:23.659Z,20.87
2017-12-21T18:52:51.948Z,20.17
2017-12-21T18:55:20.217Z,21.73
2017-12-21T18:57:49.546Z,22.67
2017-12-21T19:00:17.815Z,21.60
2017-12-21T19:02:46.314Z,22.67
2017-12-21T19:05:14.593Z,21.67
2017-12-21T19:07:43.049Z,26.97
2017-12-21T19:10:11.395Z,26.73
2017-12-21T19:12:39.808Z,23.50
2017-12-21T19:15:08.471Z,22.70
2017-12-21T19:17:36.790Z,29.30
2017-12-21T19:20:05.867Z,22.33
2017-12-21T19:22:34.213Z,27.40
2017-12-21T19:25:02.458Z,28.80
2017-12-21T19:27:30.745Z,29.33
2017-12-21T19:29:59.000Z,24.93
2017-12-21T19:32:27.291Z,26.57
2017-12-21T19:34:55.726Z,27.40
2017-12-21T19:37:23.977Z,33.63
2017-12-21T19:39:52.282Z,30.63
2017-12-21T19:42:22.131Z,29.17
2017-12-21T19:44:51.252Z,29.07
2017-12-21T19:47:20.435Z,24.63
2017-12-21T19:49:48.727Z,26.03
2017-12-21T19:52:17.577Z,26.23
2017-12-21T19:54:45.848Z,28.23
2017-12-21T19:57:14.118Z,27.67
2017-12-21T19:59:42.586Z,24.97
2017-12-21T20:02:10.904Z,26.47
2017-12-21T20:04:39.193Z,26.03
2017-12-21T20:07:07.464Z,30.87
2017-12-21T20:09:35.730Z,27.13
2017-12-21T20:12:06.200Z,26.87
2017-12-21T20:14:34.498Z,28.63
2017-12-21T20:17:03.540Z,26.17
2017-12-21T20:19:31.867Z,28.00
2017-12-21T20:22:00.165Z,24.10
2017-12-21T20:24:30.516Z,27.90
2017-12-21T20:27:00.617Z,29.20
2017-12-21T20:29:29.703Z,27.03
2017-12-21T20:31:58.010Z,26.20
2017-12-21T20:34:26.413Z,29.10
2017-12-21T20:36:55.146Z,26.43
2017-12-21T20:39:23.452Z,26.80
2017-12-21T20:41:52.096Z,30.50
2017-12-21T20:44:22.005Z,31.93
2017-12-21T20:46:50.337Z,30.60
2017-12-21T20:49:18.730Z,33.57
2017-12-21T20:51:47.232Z,29.43
2017-12-21T20:54:15.706Z,26.77
2017-12-21T20:56:43.989Z,31.30
2017-12-21T20:59:13.842Z,29.20
2017-12-21T21:01:43.866Z,35.63
2017-12-21T21:04:12.169Z,34.97
2017-12-21T21:06:40.432Z,33.23
2017-12-21T21:09:09.568Z,36.90
2017-12-21T21:11:37.947Z,32.67
2017-12-21T21:14:07.070Z,32.67
2017-12-21T21:16:36.092Z,35.70
2017-12-21T21:19:04.407Z,40.70
2017-12-21T21:21:32.714Z,39.53
2017-12-21T21:24:00.984Z,36.33
2017-12-21T21:26:30.060Z,27.10
2017-12-21T21:28:58.354Z,31.00
2017-12-21T21:31:27.577Z,31.03
2017-12-21T21:33:55.892Z,38.00
2017-12-21T21:36:25.070Z,33.00
2017-12-21T21:38:53.361Z,38.87
2017-12-21T21:41:22.533Z,32.07
2017-12-21T21:43:50.843Z,36.50
2017-12-21T21:46:19.184Z,35.63
2017-12-21T21:48:47.454Z,40.77
2017-12-21T21:51:15.779Z,40.50
2017-12-21T21:53:44.105Z,37.40
2017-12-21T21:56:13.185Z,36.57
2017-12-21T21:58:42.564Z,35.80
2017-12-21T22:01:11.071Z,36.07
2017-12-21T22:03:40.549Z,38.60
2017-12-21T22:06:08.883Z,35.67
2017-12-21T22:08:37.192Z,33.13
2017-12-21T22:11:05.640Z,38.67
2017-12-21T22:13:33.944Z,34.70
2017-12-21T22:16:02.219Z,35.50
2017-12-21T22:18:31.076Z,38.93
2017-12-21T22:21:00.385Z,34.03
2017-12-21T22:23:28.667Z,33.77
2017-12-21T22:25:57.836Z,32.27
2017-12-21T22:28:26.861Z,33.47
2017-12-21T22:30:55.245Z,33.90
2017-12-21T22:33:23.578Z,30.67
2017-12-21T22:35:51.816Z,30.37
2017-12-21T22:38:20.128Z,30.17
2017-12-21T22:40:48.378Z,27.87
2017-12-21T22:43:16.694Z,31.93
2017-12-21T22:45:45.876Z,30.67
2017-12-21T22:48:14.136Z,31.10
2017-12-21T22:50:43.008Z,28.77
2017-12-21T22:53:12.200Z,28.90
2017-12-21T22:55:42.572Z,30.50
2017-12-21T22:58:11.823Z,31.70
2017-12-21T23:00:40.097Z,34.93
2017-12-21T23:03:08.422Z,31.30
2017-12-21T23:05:36.708Z,35.07
2017-12-21T23:08:05.017Z,32.37
2017-12-21T23:10:33.284Z,32.30
2017-12-21T23:13:02.446Z,34.00
2017-12-21T23:15:31.456Z,33.73
2017-12-21T23:17:59.768Z,36.03
2017-12-21T23:20:28.055Z,35.00
2017-12-21T23:22:56.364Z,32.77
2017-12-21T23:25:24.676Z,35.97
2017-12-21T23:27:53.848Z,31.40
2017-12-21T23:30:22.132Z,28.90
2017-12-21T23:32:50.608Z,35.33
2017-12-21T23:35:19.904Z,39.27
2017-12-21T23:37:48.952Z,34.30
2017-12-21T23:40:17.214Z,39.73
2017-12-21T23:42:45.540Z,32.73
2017-12-21T23:45:13.806Z,32.60
2017-12-21T23:47:44.005Z,34.70
2017-12-21T23:50:12.465Z,32.10
2017-12-21T23:52:40.747Z,30.83
2017-12-21T23:55:09.007Z,31.60
2017-12-21T23:57:37.304Z,29.00
